createdAt,value
2018-05-10T00:01:42.549Z,17.70
2018-05-10T00:04:10.122Z,17.60
2018-05-10T00:06:37.779Z,17.50
2018-05-10T00:09:05.408Z,17.40
2018-05-10T00:11:33.021Z,17.40
2018-05-10T00:14:00.602Z,17.30
2018-05-10T00:16:28.995Z,17.20
2018-05-10T00:18:57.332Z,17.20
2018-05-10T00:21:24.907Z,17.20
2018-05-10T00:23:52.523Z,17.20
2018-05-10T00:26:20.093Z,17.10
2018-05-10T00:28:47.705Z,17.00
2018-05-10T00:31:16.081Z,17.00
2018-05-10T00:33:44.429Z,17.00
2018-05-10T00:36:12.130Z,17.00
2018-05-10T00:38:39.710Z,17.00
2018-05-10T00:41:07.323Z,16.90
2018-05-10T00:43:34.943Z,16.90
2018-05-10T00:46:02.588Z,16.80
2018-05-10T00:48:30.431Z,16.80
2018-05-10T00:50:57.973Z,16.70
2018-05-10T00:53:27.273Z,16.60
2018-05-10T00:55:55.665Z,16.60
2018-05-10T00:58:24.074Z,16.60
2018-05-10T01:00:51.650Z,16.50
2018-05-10T01:03:19.309Z,16.50
2018-05-10T01:05:46.893Z,16.40
2018-05-10T01:08:14.502Z,16.40
2018-05-10T01:10:42.120Z,16.30
2018-05-10T01:13:09.697Z,16.30
2018-05-10T01:15:38.090Z,16.20
2018-05-10T01:18:06.273Z,16.10
2018-05-10T01:20:33.858Z,16.10
2018-05-10T01:23:01.498Z,16.10
2018-05-10T01:25:29.105Z,16.10
2018-05-10T01:27:56.716Z,16.20
2018-05-10T01:30:24.295Z,16.20
2018-05-10T01:32:51.957Z,16.10
2018-05-10T01:35:31.417Z,16.10
2018-05-10T01:37:59.028Z,16.00
2018-05-10T01:40:26.611Z,15.90
2018-05-10T01:42:54.184Z,15.90
2018-05-10T01:45:21.810Z,15.70
2018-05-10T01:47:49.390Z,15.60
2018-05-10T01:50:16.965Z,15.50
2018-05-10T01:52:44.584Z,15.40
2018-05-10T01:55:12.154Z,15.50
2018-05-10T01:57:39.793Z,15.50
2018-05-10T02:00:08.203Z,15.10
2018-05-10T02:02:35.872Z,15.10
2018-05-10T02:05:03.453Z,15.00
2018-05-10T02:07:31.090Z,14.80
2018-05-10T02:09:58.657Z,14.70
2018-05-10T02:12:26.237Z,14.50
2018-05-10T02:14:53.869Z,14.40
2018-05-10T02:17:21.450Z,14.40
2018-05-10T02:19:49.031Z,14.30
2018-05-10T02:22:17.413Z,14.30
2018-05-10T02:24:45.794Z,14.30
2018-05-10T02:27:14.350Z,14.20
2018-05-10T02:29:42.033Z,14.20
2018-05-10T02:32:09.617Z,14.20
2018-05-10T02:34:37.191Z,14.20
2018-05-10T02:37:04.810Z,14.20
2018-05-10T02:39:33.181Z,14.10
2018-05-10T02:42:00.815Z,14.10
2018-05-10T02:44:28.399Z,14.10
2018-05-10T02:46:55.969Z,14.00
2018-05-10T02:49:24.368Z,13.90
2018-05-10T02:51:51.961Z,13.90
2018-05-10T02:54:19.610Z,13.90
2018-05-10T02:56:47.224Z,13.90
2018-05-10T02:59:15.583Z,13.90
2018-05-10T03:01:43.240Z,13.80
2018-05-10T03:04:10.858Z,13.80
2018-05-10T03:06:38.453Z,13.70
2018-05-10T03:09:06.070Z,13.70
2018-05-10T03:11:33.643Z,13.70
2018-05-10T03:14:01.265Z,13.60
2018-05-10T03:16:29.616Z,13.60
2018-05-10T03:18:57.241Z,13.50
2018-05-10T03:21:24.884Z,13.50
2018-05-10T03:23:52.515Z,13.50
2018-05-10T03:26:20.911Z,13.50
2018-05-10T03:28:49.288Z,13.40
2018-05-10T03:31:17.669Z,13.40
2018-05-10T03:33:46.026Z,13.40
2018-05-10T03:36:13.606Z,13.30
2018-05-10T03:38:42.029Z,13.30
2018-05-10T03:41:09.626Z,13.30
2018-05-10T03:43:37.229Z,13.30
2018-05-10T03:46:04.809Z,13.20
2018-05-10T03:48:32.433Z,13.20
2018-05-10T03:51:01.973Z,13.20
2018-05-10T03:53:29.594Z,13.20
2018-05-10T03:55:57.928Z,13.20
2018-05-10T04:01:00.105Z,13.20
2018-05-10T04:03:39.664Z,13.20
2018-05-10T04:06:19.144Z,13.10
2018-05-10T04:08:58.737Z,13.10
2018-05-10T04:11:27.080Z,13.20
2018-05-10T04:13:54.660Z,13.20
2018-05-10T04:16:22.276Z,13.20
2018-05-10T04:18:51.814Z,13.20
2018-05-10T04:21:19.436Z,13.20
2018-05-10T04:23:47.915Z,13.20
2018-05-10T04:26:15.522Z,13.20
2018-05-10T04:28:43.152Z,13.30
2018-05-10T04:31:10.739Z,13.30
2018-05-10T04:33:38.352Z,13.30
2018-05-10T04:36:06.687Z,13.30
2018-05-10T04:38:34.301Z,13.30
2018-05-10T04:41:01.889Z,13.30
2018-05-10T04:43:29.495Z,13.30
2018-05-10T04:45:57.884Z,13.30
2018-05-10T04:48:26.229Z,13.40
2018-05-10T04:50:53.821Z,13.30
2018-05-10T04:53:21.428Z,13.40
2018-05-10T04:55:49.005Z,13.40
2018-05-10T04:58:16.615Z,13.40
2018-05-10T05:00:44.202Z,13.40
2018-05-10T05:03:11.817Z,13.40
2018-05-10T05:05:40.162Z,13.50
2018-05-10T05:08:07.797Z,13.50
2018-05-10T05:10:35.367Z,13.50
2018-05-10T05:13:02.980Z,13.50
2018-05-10T05:15:31.317Z,13.60
2018-05-10T05:17:58.928Z,13.60
2018-05-10T05:20:26.487Z,13.60
2018-05-10T05:22:54.113Z,13.70
2018-05-10T05:25:21.672Z,13.70
2018-05-10T05:27:49.281Z,13.70
2018-05-10T05:30:16.879Z,13.70
2018-05-10T05:32:44.496Z,13.70
2018-05-10T05:35:12.091Z,13.80
2018-05-10T05:37:39.675Z,13.90
2018-05-10T05:40:08.053Z,14.10
2018-05-10T05:42:35.625Z,14.10
2018-05-10T05:45:04.048Z,14.30
2018-05-10T05:47:31.627Z,14.30
2018-05-10T05:50:00.089Z,14.50
2018-05-10T05:52:27.652Z,14.40
2018-05-10T05:54:55.293Z,14.60
2018-05-10T05:57:22.896Z,14.70
2018-05-10T05:59:50.480Z,14.80
2018-05-10T06:02:18.868Z,15.00
2018-05-10T06:04:46.444Z,15.00
2018-05-10T06:07:14.058Z,15.10
2018-05-10T06:09:41.689Z,15.20
2018-05-10T06:12:09.264Z,15.10
2018-05-10T06:14:36.877Z,15.20
2018-05-10T06:17:04.500Z,15.30
2018-05-10T06:19:32.099Z,15.30
2018-05-10T06:21:59.669Z,15.50
2018-05-10T06:24:27.304Z,15.50
2018-05-10T06:26:55.650Z,15.40
2018-05-10T06:29:23.277Z,15.40
2018-05-10T06:31:50.898Z,15.30
2018-05-10T06:34:18.522Z,15.10
2018-05-10T06:36:46.096Z,14.90
2018-05-10T06:39:13.731Z,14.80
2018-05-10T06:41:41.391Z,14.70
2018-05-10T06:44:09.004Z,14.70
2018-05-10T06:46:36.581Z,14.70
2018-05-10T06:49:04.199Z,14.80
2018-05-10T06:51:32.550Z,15.10
2018-05-10T06:54:00.165Z,15.10
2018-05-10T06:56:27.782Z,15.30
2018-05-10T06:58:55.368Z,15.50
2018-05-10T07:01:23.761Z,15.80
2018-05-10T07:03:51.351Z,15.80
2018-05-10T07:06:18.970Z,16.10
2018-05-10T07:08:47.305Z,16.50
2018-05-10T07:11:14.897Z,16.50
2018-05-10T07:13:43.280Z,16.40
2018-05-10T07:16:11.690Z,16.30
2018-05-10T07:18:39.267Z,16.30
2018-05-10T07:21:06.843Z,16.20
2018-05-10T07:23:34.456Z,16.10
2018-05-10T07:26:02.030Z,15.90
2018-05-10T07:28:29.667Z,15.70
2018-05-10T07:30:58.017Z,15.80
2018-05-10T07:33:25.584Z,15.70
2018-05-10T07:35:53.202Z,15.90
2018-05-10T07:38:20.801Z,16.20
2018-05-10T07:40:48.413Z,16.40
2018-05-10T07:43:15.998Z,16.40
2018-05-10T07:45:43.615Z,16.40
2018-05-10T07:48:11.197Z,16.50
2018-05-10T07:50:38.839Z,16.40
2018-05-10T07:53:06.440Z,16.40
2018-05-10T07:55:34.078Z,16.30
2018-05-10T07:58:01.649Z,16.00
2018-05-10T08:00:30.020Z,15.90
2018-05-10T08:02:57.599Z,15.90
2018-05-10T08:05:25.224Z,15.80
2018-05-10T08:07:52.899Z,15.70
2018-05-10T08:10:20.534Z,15.70
2018-05-10T08:12:48.119Z,15.50
2018-05-10T08:15:15.690Z,15.30
2018-05-10T08:17:43.464Z,15.20
2018-05-10T08:20:11.041Z,15.10
2018-05-10T08:22:38.635Z,15.10
2018-05-10T08:25:06.241Z,15.10
2018-05-10T08:27:45.548Z,15.10
2018-05-10T08:30:13.248Z,15.20
2018-05-10T08:32:40.753Z,15.30
2018-05-10T08:35:08.445Z,15.40
2018-05-10T08:37:36.033Z,15.50
2018-05-10T08:40:03.619Z,15.50
2018-05-10T08:42:31.235Z,15.60
2018-05-10T08:44:58.866Z,15.50
2018-05-10T08:47:26.473Z,15.40
2018-05-10T08:49:54.090Z,15.30
2018-05-10T08:52:21.703Z,15.20
2018-05-10T08:54:50.052Z,15.10
2018-05-10T08:57:17.648Z,15.10
2018-05-10T08:59:46.042Z,15.00
2018-05-10T09:02:13.632Z,15.00
2018-05-10T09:04:41.290Z,14.90
2018-05-10T09:07:08.906Z,14.90
2018-05-10T09:09:37.286Z,14.70
2018-05-10T09:12:05.629Z,14.60
2018-05-10T09:14:33.266Z,14.60
2018-05-10T09:17:00.927Z,14.60
2018-05-10T09:19:28.540Z,14.50
2018-05-10T09:21:56.872Z,14.40
2018-05-10T09:24:24.493Z,14.40
2018-05-10T09:26:52.065Z,14.30
2018-05-10T09:29:19.679Z,14.20
2018-05-10T09:31:47.260Z,14.00
2018-05-10T09:34:15.632Z,13.70
2018-05-10T09:36:43.976Z,13.60
2018-05-10T09:39:11.690Z,13.60
2018-05-10T09:41:39.218Z,13.50
2018-05-10T09:44:06.938Z,13.50
2018-05-10T09:46:34.507Z,13.40
2018-05-10T09:49:02.084Z,13.40
2018-05-10T09:51:29.695Z,13.50
2018-05-10T09:53:57.267Z,13.50
2018-05-10T09:56:24.890Z,13.60
2018-05-10T09:58:53.236Z,13.60
2018-05-10T10:01:20.851Z,13.60
2018-05-10T10:03:48.465Z,13.80
2018-05-10T10:06:16.199Z,13.90
2018-05-10T10:08:44.321Z,14.00
2018-05-10T10:11:12.276Z,14.10
2018-05-10T10:13:40.753Z,14.00
2018-05-10T10:16:09.529Z,14.00
2018-05-10T10:18:41.164Z,14.10
2018-05-10T10:21:09.791Z,14.10
2018-05-10T10:23:37.668Z,14.20
2018-05-10T10:26:05.332Z,14.30
2018-05-10T10:28:34.642Z,14.60
2018-05-10T10:31:02.915Z,14.60
2018-05-10T10:33:31.016Z,14.60
2018-05-10T10:35:59.792Z,14.70
2018-05-10T10:38:27.450Z,14.60
2018-05-10T10:40:56.445Z,14.60
2018-05-10T10:43:24.473Z,14.60
2018-05-10T10:46:03.667Z,14.70
2018-05-10T10:48:31.606Z,14.70
2018-05-10T10:51:00.515Z,14.80
2018-05-10T10:53:28.451Z,14.90
2018-05-10T10:55:57.929Z,14.90
2018-05-10T10:58:25.928Z,14.90
2018-05-10T11:00:55.315Z,15.10
2018-05-10T11:03:24.203Z,15.30
2018-05-10T11:05:53.432Z,15.50
2018-05-10T11:08:21.458Z,15.50
2018-05-10T11:10:49.994Z,15.60
2018-05-10T11:13:18.871Z,15.50
2018-05-10T11:15:47.005Z,15.40
2018-05-10T11:18:14.955Z,15.30
2018-05-10T11:20:43.570Z,15.40
2018-05-10T11:23:11.714Z,15.30
2018-05-10T11:25:39.733Z,15.30
2018-05-10T11:28:07.818Z,15.40
2018-05-10T11:30:36.733Z,15.50
2018-05-10T11:33:05.679Z,15.50
2018-05-10T11:35:33.809Z,15.50
2018-05-10T11:38:02.382Z,15.30
2018-05-10T11:40:31.377Z,15.30
2018-05-10T11:43:00.110Z,15.30
2018-05-10T11:45:29.700Z,15.30
2018-05-10T11:47:59.064Z,15.40
2018-05-10T11:50:27.969Z,15.10
2018-05-10T11:52:56.101Z,15.10
2018-05-10T11:55:24.412Z,15.20
2018-05-10T11:57:56.483Z,15.40
2018-05-10T12:00:25.814Z,15.60
2018-05-10T12:02:54.723Z,15.60
2018-05-10T12:05:22.767Z,15.60
2018-05-10T12:07:51.868Z,15.40
2018-05-10T12:10:19.899Z,15.20
2018-05-10T12:12:47.970Z,15.10
2018-05-10T12:15:15.975Z,15.10
2018-05-10T12:17:43.945Z,15.10
2018-05-10T12:20:13.651Z,15.10
2018-05-10T12:22:41.843Z,15.10
2018-05-10T12:25:10.042Z,15.10
2018-05-10T12:27:37.963Z,15.10
2018-05-10T12:30:07.844Z,15.00
2018-05-10T12:32:35.945Z,15.00
2018-05-10T12:35:03.953Z,14.90
2018-05-10T12:37:31.984Z,14.90
2018-05-10T12:40:02.103Z,14.90
2018-05-10T12:42:31.038Z,14.80
2018-05-10T12:44:59.888Z,14.70
2018-05-10T12:47:27.847Z,14.70
2018-05-10T12:49:55.851Z,14.70
2018-05-10T12:52:23.881Z,14.70
2018-05-10T12:54:51.920Z,14.80
2018-05-10T12:57:20.685Z,14.70
2018-05-10T12:59:49.122Z,14.60
2018-05-10T13:02:17.564Z,14.50
2018-05-10T13:04:45.143Z,14.50
2018-05-10T13:07:13.555Z,14.40
2018-05-10T13:09:41.131Z,14.40
2018-05-10T13:12:08.747Z,14.30
2018-05-10T13:14:37.143Z,14.20
2018-05-10T13:17:05.535Z,14.20
2018-05-10T13:19:33.144Z,14.20
2018-05-10T13:22:00.731Z,14.10
2018-05-10T13:24:29.116Z,14.10
2018-05-10T13:26:57.462Z,13.90
2018-05-10T13:29:25.071Z,13.90
2018-05-10T13:31:52.666Z,13.90
2018-05-10T13:34:20.421Z,13.80
2018-05-10T13:36:47.998Z,13.70
2018-05-10T13:39:15.621Z,13.70
2018-05-10T13:41:43.302Z,13.50
2018-05-10T13:44:10.925Z,13.40
2018-05-10T13:46:38.513Z,13.30
2018-05-10T13:49:06.128Z,13.20
2018-05-10T13:51:34.480Z,13.10
2018-05-10T13:54:02.885Z,13.00
2018-05-10T13:56:31.236Z,13.00
2018-05-10T13:58:58.894Z,12.90
2018-05-10T14:01:26.465Z,12.90
2018-05-10T14:03:54.081Z,12.80
2018-05-10T14:06:21.761Z,12.80
2018-05-10T14:08:50.054Z,12.70
2018-05-10T14:11:17.684Z,12.80
2018-05-10T14:13:45.262Z,12.80
2018-05-10T14:16:12.842Z,12.80
2018-05-10T14:18:40.462Z,12.80
2018-05-10T14:21:08.069Z,12.80
2018-05-10T14:23:35.645Z,12.70
2018-05-10T14:26:04.021Z,12.70
2018-05-10T14:28:33.323Z,12.70
2018-05-10T14:31:01.668Z,12.70
2018-05-10T14:33:29.283Z,12.70
2018-05-10T14:35:56.905Z,12.80
2018-05-10T14:38:25.251Z,12.80
2018-05-10T14:40:53.627Z,12.80
2018-05-10T14:43:21.253Z,12.80
2018-05-10T14:45:48.892Z,12.90
2018-05-10T14:48:17.232Z,12.90
2018-05-10T14:50:44.938Z,12.90
2018-05-10T14:53:12.517Z,12.90
2018-05-10T14:55:40.088Z,12.90
2018-05-10T14:58:07.710Z,12.90
2018-05-10T15:00:36.060Z,12.90
2018-05-10T15:03:03.678Z,12.90
2018-05-10T15:05:31.262Z,12.90
2018-05-10T15:07:58.912Z,12.90
2018-05-10T15:10:26.495Z,12.90
2018-05-10T15:12:54.107Z,12.90
2018-05-10T15:15:21.792Z,12.90
2018-05-10T15:17:49.407Z,12.90
2018-05-10T15:20:17.747Z,12.90
2018-05-10T15:22:45.405Z,12.90
2018-05-10T15:25:12.994Z,12.90
2018-05-10T15:27:40.599Z,12.90
2018-05-10T15:30:08.184Z,12.90
2018-05-10T15:32:35.829Z,12.90
2018-05-10T15:35:03.987Z,12.90
2018-05-10T15:37:31.609Z,12.90
2018-05-10T15:39:59.952Z,12.80
2018-05-10T15:42:27.576Z,12.80
2018-05-10T15:44:55.144Z,12.80
2018-05-10T15:47:22.762Z,12.80
2018-05-10T15:49:50.336Z,12.80
2018-05-10T15:52:18.725Z,12.90
2018-05-10T15:54:46.394Z,12.80
2018-05-10T15:57:14.012Z,12.90
2018-05-10T15:59:41.589Z,12.90
2018-05-10T16:02:09.981Z,13.00
2018-05-10T16:04:37.556Z,13.00
2018-05-10T16:07:05.216Z,13.00
2018-05-10T16:09:33.538Z,13.00
2018-05-10T16:12:01.116Z,13.00
2018-05-10T16:14:29.491Z,13.00
2018-05-10T16:16:57.108Z,13.00
2018-05-10T16:19:24.772Z,13.00
2018-05-10T16:21:52.406Z,13.00
2018-05-10T16:24:20.407Z,13.00
2018-05-10T16:26:47.990Z,13.00
2018-05-10T16:29:15.601Z,13.00
2018-05-10T16:31:43.218Z,12.90
2018-05-10T16:34:10.800Z,13.00
2018-05-10T16:36:38.448Z,13.00
2018-05-10T16:39:06.797Z,13.00
2018-05-10T16:41:34.463Z,13.00
2018-05-10T16:44:02.038Z,13.00
2018-05-10T16:46:29.619Z,13.00
2018-05-10T16:48:58.005Z,13.00
2018-05-10T16:51:25.572Z,13.00
2018-05-10T16:53:53.145Z,13.00
2018-05-10T16:56:20.754Z,13.00
2018-05-10T16:58:49.104Z,13.00
2018-05-10T17:01:16.711Z,13.00
2018-05-10T17:03:45.125Z,13.00
2018-05-10T17:06:12.711Z,13.00
2018-05-10T17:08:40.332Z,13.00
2018-05-10T17:11:07.906Z,13.00
2018-05-10T17:13:35.601Z,13.00
2018-05-10T17:16:03.190Z,13.00
2018-05-10T17:18:31.597Z,13.00
2018-05-10T17:21:00.082Z,13.00
2018-05-10T17:23:27.651Z,12.90
2018-05-10T17:25:55.223Z,13.00
2018-05-10T17:28:22.848Z,12.90
2018-05-10T17:30:50.432Z,12.90
2018-05-10T17:33:18.054Z,12.90
2018-05-10T17:35:45.628Z,13.00
2018-05-10T17:38:13.239Z,12.90
2018-05-10T17:40:40.850Z,13.00
2018-05-10T17:43:08.431Z,13.00
2018-05-10T17:45:36.053Z,13.00
2018-05-10T17:48:03.735Z,13.00
2018-05-10T17:50:32.054Z,13.00
2018-05-10T17:52:59.674Z,13.00
2018-05-10T17:55:27.287Z,13.00
2018-05-10T17:57:55.699Z,13.00
2018-05-10T18:00:23.517Z,13.00
2018-05-10T18:02:51.142Z,13.00
2018-05-10T18:05:18.817Z,13.00
2018-05-10T18:07:46.439Z,13.00
2018-05-10T18:10:14.020Z,13.10
2018-05-10T18:12:41.647Z,13.00
2018-05-10T18:15:10.025Z,13.00
2018-05-10T18:17:38.361Z,13.00
2018-05-10T18:20:06.004Z,13.00
2018-05-10T18:22:33.625Z,12.90
2018-05-10T18:25:01.195Z,12.90
2018-05-10T18:27:28.808Z,12.90
2018-05-10T18:29:56.435Z,12.90
2018-05-10T18:32:24.036Z,12.80
2018-05-10T18:34:51.658Z,12.90
2018-05-10T18:37:19.281Z,12.90
2018-05-10T18:39:47.686Z,12.90
2018-05-10T18:42:15.386Z,12.90
2018-05-10T18:44:43.759Z,12.90
2018-05-10T18:47:11.381Z,12.90
2018-05-10T18:49:39.061Z,12.90
2018-05-10T18:52:06.635Z,12.90
2018-05-10T18:54:34.598Z,12.90
2018-05-10T18:57:02.260Z,12.90
2018-05-10T18:59:29.887Z,12.90
2018-05-10T19:01:57.527Z,12.90
2018-05-10T19:04:25.100Z,12.90
2018-05-10T19:06:52.683Z,12.90
2018-05-10T19:09:21.915Z,12.90
2018-05-10T19:11:50.369Z,12.80
2018-05-10T19:14:18.014Z,12.80
2018-05-10T19:16:45.619Z,12.80
2018-05-10T19:19:13.329Z,12.80
2018-05-10T19:21:40.965Z,12.80
2018-05-10T19:24:09.356Z,12.70
2018-05-10T19:26:37.036Z,12.70
2018-05-10T19:29:05.335Z,12.80
2018-05-10T19:31:32.954Z,12.70
2018-05-10T19:34:00.524Z,12.70
2018-05-10T19:36:28.150Z,12.70
2018-05-10T19:38:56.496Z,12.70
2018-05-10T19:41:24.146Z,12.70
2018-05-10T19:43:51.725Z,12.70
2018-05-10T19:46:19.379Z,12.70
2018-05-10T19:48:47.769Z,12.60
2018-05-10T19:51:15.410Z,12.60
2018-05-10T19:53:42.991Z,12.60
2018-05-10T19:56:10.584Z,12.60
2018-05-10T19:58:38.921Z,12.50
2018-05-10T20:01:06.664Z,12.50
2018-05-10T20:03:34.241Z,12.60
2018-05-10T20:06:01.861Z,12.50
2018-05-10T20:08:29.470Z,12.60
2018-05-10T20:10:57.076Z,12.50
2018-05-10T20:13:24.656Z,12.50
2018-05-10T20:15:52.292Z,12.50
2018-05-10T20:18:19.951Z,12.50
2018-05-10T20:20:47.515Z,12.50
2018-05-10T20:23:15.134Z,12.50
2018-05-10T20:25:43.621Z,12.50
2018-05-10T20:28:11.233Z,12.40
2018-05-10T20:30:39.589Z,12.40
2018-05-10T20:33:07.204Z,12.40
2018-05-10T20:35:34.869Z,12.40
2018-05-10T20:38:02.473Z,12.30
2018-05-10T20:40:30.043Z,12.40
2018-05-10T20:42:57.656Z,12.30
2018-05-10T20:45:25.233Z,12.30
2018-05-10T20:47:53.570Z,12.30
2018-05-10T20:50:21.204Z,12.30
2018-05-10T20:52:48.804Z,12.20
2018-05-10T20:55:16.372Z,12.20
2018-05-10T20:57:43.990Z,12.20
2018-05-10T21:00:11.562Z,12.10
2018-05-10T21:02:39.174Z,12.00
2018-05-10T21:05:07.520Z,11.90
2018-05-10T21:07:35.131Z,11.80
2018-05-10T21:10:02.788Z,11.90
2018-05-10T21:12:42.287Z,11.90
2018-05-10T21:15:09.917Z,11.90
2018-05-10T21:17:37.495Z,11.90
2018-05-10T21:20:05.103Z,11.90
2018-05-10T21:22:32.680Z,11.90
2018-05-10T21:25:00.301Z,11.80
2018-05-10T21:27:28.680Z,11.60
2018-05-10T21:29:57.024Z,11.50
2018-05-10T21:32:24.664Z,11.40
2018-05-10T21:34:52.244Z,11.30
2018-05-10T21:37:19.821Z,11.20
2018-05-10T21:39:47.438Z,11.10
2018-05-10T21:42:15.060Z,11.00
2018-05-10T21:44:43.440Z,10.90
2018-05-10T21:47:11.018Z,10.80
2018-05-10T21:49:50.586Z,10.90
2018-05-10T21:52:18.206Z,10.90
2018-05-10T21:54:45.791Z,10.90
2018-05-10T21:57:13.408Z,10.90
2018-05-10T21:59:41.794Z,10.90
2018-05-10T22:02:10.135Z,10.90
2018-05-10T22:04:37.728Z,10.80
2018-05-10T22:07:06.121Z,10.80
2018-05-10T22:09:33.700Z,10.80
2018-05-10T22:12:01.292Z,10.80
2018-05-10T22:14:28.908Z,10.80
2018-05-10T22:16:56.481Z,10.70
2018-05-10T22:19:24.089Z,10.80
2018-05-10T22:21:52.424Z,10.70
2018-05-10T22:24:20.032Z,10.60
2018-05-10T22:26:48.371Z,10.60
2018-05-10T22:29:15.976Z,10.60
2018-05-10T22:31:44.333Z,10.80
2018-05-10T22:34:11.953Z,10.70
2018-05-10T22:36:39.534Z,10.80
2018-05-10T22:39:07.111Z,10.80
2018-05-10T22:41:34.717Z,10.70
2018-05-10T22:44:02.286Z,10.70
2018-05-10T22:46:29.917Z,10.60
2018-05-10T22:48:58.253Z,10.50
2018-05-10T22:51:25.816Z,10.50
2018-05-10T22:53:54.920Z,10.40
2018-05-10T22:56:22.516Z,10.40
2018-05-10T22:58:50.166Z,10.40
2018-05-10T23:01:18.507Z,10.30
2018-05-10T23:03:46.080Z,10.30
2018-05-10T23:06:13.733Z,10.30
2018-05-10T23:08:41.276Z,10.40
2018-05-10T23:11:08.840Z,10.50
2018-05-10T23:13:36.445Z,10.50
2018-05-10T23:16:04.789Z,10.60
2018-05-10T23:18:32.401Z,10.50
2018-05-10T23:21:00.017Z,10.50
2018-05-10T23:23:27.594Z,10.60
2018-05-10T23:25:55.985Z,10.60
2018-05-10T23:28:23.594Z,10.60
2018-05-10T23:30:51.163Z,10.60
2018-05-10T23:33:18.780Z,10.60
2018-05-10T23:35:46.402Z,10.50
2018-05-10T23:38:14.744Z,10.40
2018-05-10T23:40:42.403Z,10.50
2018-05-10T23:43:10.007Z,10.40
2018-05-10T23:45:38.348Z,10.30
2018-05-10T23:48:05.969Z,10.30
2018-05-10T23:50:33.578Z,10.30
2018-05-10T23:53:01.149Z,10.20
2018-05-10T23:55:28.749Z,10.10
2018-05-10T23:57:56.385Z,10.10
